createdAt,value
2017-11-17T00:00:18.306Z,100885.63
2017-11-17T00:03:19.661Z,100873.23
2017-11-17T00:06:21.909Z,100873.22
2017-11-17T00:09:23.305Z,100868.27
2017-11-17T00:12:24.714Z,100880.19
2017-11-17T00:15:26.133Z,100864.73
2017-11-17T00:18:28.280Z,100867.18
2017-11-17T00:21:29.736Z,100867.81
2017-11-17T00:24:31.096Z,100867.23
2017-11-17T00:27:32.516Z,100861.36
2017-11-17T00:30:34.628Z,100864.14
2017-11-17T00:33:36.049Z,100869.81
2017-11-17T00:36:38.234Z,100860.48
2017-11-17T00:39:39.677Z,100871.59
2017-11-17T00:42:41.832Z,100865.61
2017-11-17T00:45:43.985Z,100868.41
2017-11-17T00:48:45.391Z,100874.59
2017-11-17T00:51:46.841Z,100870.40
2017-11-17T00:54:48.223Z,100881.05
2017-11-17T00:57:49.640Z,100886.87
2017-11-17T01:00:51.088Z,100877.22
2017-11-17T01:03:53.267Z,100883.95
2017-11-17T01:06:54.684Z,100888.70
2017-11-17T01:09:56.093Z,100896.70
2017-11-17T01:12:57.489Z,100898.37
2017-11-17T01:15:58.948Z,100901.13
2017-11-17T01:19:00.358Z,100897.39
2017-11-17T01:22:01.779Z,100901.84
2017-11-17T01:25:03.300Z,100909.67
2017-11-17T01:28:04.712Z,100912.80
2017-11-17T01:31:06.196Z,100910.63
2017-11-17T01:34:07.577Z,100911.29
2017-11-17T01:37:09.841Z,100916.53
2017-11-17T01:40:11.240Z,100915.52
2017-11-17T01:43:12.653Z,100921.16
2017-11-17T01:46:14.933Z,100931.06
2017-11-17T01:52:25.455Z,100926.94
2017-11-17T01:55:26.921Z,100922.23
2017-11-17T01:58:28.399Z,100918.16
2017-11-17T02:01:29.881Z,100935.77
2017-11-17T02:04:32.107Z,100934.98
2017-11-17T02:07:33.548Z,100936.30
2017-11-17T02:10:35.030Z,100933.13
2017-11-17T02:13:36.544Z,100948.59
2017-11-17T02:16:37.983Z,100946.76
2017-11-17T02:19:39.529Z,100948.85
2017-11-17T02:22:40.980Z,100944.61
2017-11-17T02:25:43.245Z,100954.39
2017-11-17T02:28:45.412Z,100948.13
2017-11-17T02:31:46.917Z,100947.27
2017-11-17T02:34:48.332Z,100945.40
2017-11-17T02:37:50.576Z,100939.66
2017-11-17T02:40:52.088Z,100937.55
2017-11-17T02:43:53.517Z,100946.52
2017-11-17T02:46:55.012Z,100956.69
2017-11-17T02:49:56.512Z,100949.64
2017-11-17T02:52:58.742Z,100965.53
2017-11-17T02:56:00.266Z,100965.98
2017-11-17T02:59:01.711Z,100969.56
2017-11-17T03:02:03.224Z,100972.55
2017-11-17T03:05:04.676Z,100977.45
2017-11-17T03:08:06.156Z,100973.55
2017-11-17T03:11:07.601Z,100977.91
2017-11-17T03:14:09.836Z,100973.05
2017-11-17T03:17:11.240Z,100975.69
2017-11-17T03:20:13.436Z,100968.69
2017-11-17T03:23:14.883Z,100977.02
2017-11-17T03:26:16.313Z,100972.68
2017-11-17T03:29:18.556Z,100981.95
2017-11-17T03:32:19.985Z,100989.02
2017-11-17T03:35:21.488Z,100976.15
2017-11-17T03:38:23.625Z,100991.69
2017-11-17T03:41:25.061Z,100994.33
2017-11-17T03:44:26.497Z,100999.63
2017-11-17T03:47:27.969Z,100995.71
2017-11-17T03:50:29.520Z,101003.60
2017-11-17T03:53:30.998Z,101014.36
2017-11-17T03:56:32.434Z,101010.70
2017-11-17T03:59:33.908Z,101017.77
2017-11-17T04:02:35.496Z,101013.76
2017-11-17T04:05:37.701Z,101020.78
2017-11-17T04:08:39.151Z,101014.66
2017-11-17T04:11:40.603Z,101012.02
2017-11-17T04:14:42.085Z,101008.47
2017-11-17T04:17:43.556Z,101018.19
2017-11-17T04:20:44.973Z,101016.87
2017-11-17T04:23:46.427Z,101026.15
2017-11-17T04:26:47.868Z,101016.87
2017-11-17T04:29:49.357Z,101023.53
2017-11-17T04:32:50.795Z,101027.48
2017-11-17T04:35:52.248Z,101025.72
2017-11-17T04:38:53.661Z,101026.17
2017-11-17T04:41:55.838Z,101027.97
2017-11-17T04:44:58.065Z,101030.67
2017-11-17T04:47:59.509Z,101034.64
2017-11-17T04:51:01.001Z,101030.34
2017-11-17T04:54:02.547Z,101033.43
2017-11-17T04:57:04.033Z,101032.56
2017-11-17T05:00:06.207Z,101031.67
2017-11-17T05:03:07.839Z,101037.36
2017-11-17T05:06:09.344Z,101028.59
2017-11-17T05:09:10.770Z,101038.30
2017-11-17T05:12:13.027Z,101044.16
2017-11-17T05:15:14.421Z,101048.13
2017-11-17T05:18:15.888Z,101039.41
2017-11-17T05:21:17.412Z,101062.71
2017-11-17T05:24:18.866Z,101061.83
2017-11-17T05:27:20.310Z,101053.93
2017-11-17T05:30:21.752Z,101057.46
2017-11-17T05:33:23.875Z,101062.27
2017-11-17T05:36:25.284Z,101068.06
2017-11-17T05:39:27.449Z,101075.13
2017-11-17T05:42:29.569Z,101070.72
2017-11-17T05:45:30.986Z,101068.56
2017-11-17T05:48:32.458Z,101072.48
2017-11-17T05:51:33.924Z,101070.72
2017-11-17T05:54:35.436Z,101074.75
2017-11-17T05:57:37.587Z,101080.97
2017-11-17T06:00:39.112Z,101086.27
2017-11-17T06:03:40.509Z,101088.48
2017-11-17T06:06:42.680Z,101094.67
2017-11-17T06:09:44.861Z,101081.91
2017-11-17T06:12:46.335Z,101096.87
2017-11-17T06:15:48.545Z,101094.75
2017-11-17T06:18:49.981Z,101103.94
2017-11-17T06:21:51.422Z,101111.50
2017-11-17T06:24:53.646Z,101105.35
2017-11-17T06:27:55.805Z,101111.13
2017-11-17T06:30:57.238Z,101121.73
2017-11-17T06:33:58.816Z,101116.03
2017-11-17T06:37:00.279Z,101124.87
2017-11-17T06:40:02.493Z,101123.22
2017-11-17T06:43:03.960Z,101121.09
2017-11-17T06:46:05.398Z,101126.34
2017-11-17T06:49:06.778Z,101131.64
2017-11-17T06:52:08.159Z,101125.97
2017-11-17T06:55:17.210Z,101133.50
2017-11-17T06:58:19.351Z,101137.95
2017-11-17T07:01:20.724Z,101152.44
2017-11-17T07:04:22.769Z,101154.20
2017-11-17T07:07:24.075Z,101158.23
2017-11-17T07:10:25.428Z,101163.53
2017-11-17T07:13:26.740Z,101171.94
2017-11-17T07:16:28.799Z,101174.15
2017-11-17T07:19:30.165Z,101177.66
2017-11-17T07:22:32.235Z,101180.31
2017-11-17T07:25:34.317Z,101189.97
2017-11-17T07:28:35.658Z,101197.50
2017-11-17T07:31:37.725Z,101201.91
2017-11-17T07:34:39.744Z,101206.30
2017-11-17T07:37:48.900Z,101207.21
2017-11-17T07:40:50.212Z,101211.56
2017-11-17T07:43:51.629Z,101216.42
2017-11-17T07:46:53.795Z,101203.26
2017-11-17T07:49:55.940Z,101216.89
2017-11-17T07:52:57.291Z,101223.05
2017-11-17T07:55:58.656Z,101213.83
2017-11-17T07:59:00.860Z,101226.10
2017-11-17T08:02:02.273Z,101228.75
2017-11-17T08:05:03.736Z,101230.12
2017-11-17T08:08:05.822Z,101220.86
2017-11-17T08:11:07.721Z,101227.06
2017-11-17T08:14:09.119Z,101224.39
2017-11-17T08:17:22.310Z,101219.09
2017-11-17T08:20:23.683Z,101224.41
2017-11-17T08:23:25.218Z,101226.56
2017-11-17T08:26:28.713Z,101227.98
2017-11-17T08:29:30.171Z,101223.58
2017-11-17T08:32:31.585Z,101236.67
2017-11-17T08:35:32.946Z,101230.95
2017-11-17T08:38:34.318Z,101228.39
2017-11-17T08:41:35.693Z,101230.60
2017-11-17T08:44:37.030Z,101230.17
2017-11-17T08:47:38.405Z,101222.27
2017-11-17T08:50:39.754Z,101224.49
2017-11-17T08:53:41.196Z,101220.05
2017-11-17T08:56:42.533Z,101229.28
2017-11-17T08:59:43.882Z,101230.64
2017-11-17T09:02:45.802Z,101220.95
2017-11-17T09:05:47.831Z,101231.09
2017-11-17T09:08:49.878Z,101230.26
2017-11-17T09:11:51.230Z,101231.11
2017-11-17T09:14:52.571Z,101237.73
2017-11-17T09:17:53.908Z,101232.00
2017-11-17T09:20:55.241Z,101237.33
2017-11-17T09:23:57.356Z,101242.16
2017-11-17T09:27:00.119Z,101252.27
2017-11-17T09:30:01.481Z,101254.02
2017-11-17T09:33:02.861Z,101261.08
2017-11-17T09:36:04.252Z,101248.72
2017-11-17T09:39:06.341Z,101261.97
2017-11-17T09:42:07.728Z,101262.38
2017-11-17T09:45:09.134Z,101255.31
2017-11-17T09:48:10.513Z,101260.63
2017-11-17T09:51:11.862Z,101255.77
2017-11-17T09:54:13.202Z,101260.16
2017-11-17T09:57:14.615Z,101256.19
2017-11-17T10:00:15.948Z,101251.34
2017-11-17T10:03:17.289Z,101248.25
2017-11-17T10:06:18.658Z,101254.80
2017-11-17T10:09:20.017Z,101253.44
2017-11-17T10:12:22.166Z,101246.43
2017-11-17T10:15:23.535Z,101247.23
2017-11-17T10:18:24.924Z,101258.69
2017-11-17T10:21:27.806Z,101239.70
2017-11-17T10:24:29.305Z,101239.73
2017-11-17T10:27:30.670Z,101243.27
2017-11-17T10:30:32.485Z,101243.68
2017-11-17T10:33:34.662Z,101240.17
2017-11-17T10:36:36.802Z,101246.33
2017-11-17T10:39:38.130Z,101243.27
2017-11-17T10:42:39.521Z,101239.30
2017-11-17T10:45:41.643Z,101245.45
2017-11-17T10:48:43.036Z,101246.71
2017-11-17T10:51:44.570Z,101251.09
2017-11-17T10:54:46.092Z,101248.89
2017-11-17T10:57:54.656Z,101235.20
2017-11-17T11:00:57.133Z,101232.99
2017-11-17T11:03:58.481Z,101244.50
2017-11-17T11:06:59.970Z,101244.06
2017-11-17T11:10:04.264Z,101236.05
2017-11-17T11:13:06.457Z,101237.30
2017-11-17T11:16:07.943Z,101234.14
2017-11-17T11:19:09.329Z,101236.02
2017-11-17T11:22:10.806Z,101234.66
2017-11-17T11:25:12.747Z,101236.05
2017-11-17T11:28:14.928Z,101239.52
2017-11-17T11:31:17.047Z,101234.25
2017-11-17T11:34:18.463Z,101232.92
2017-11-17T11:37:20.582Z,101226.37
2017-11-17T11:40:22.031Z,101234.28
2017-11-17T11:43:23.452Z,101226.27
2017-11-17T11:46:24.869Z,101213.42
2017-11-17T11:49:27.020Z,101219.04
2017-11-17T11:52:28.417Z,101219.04
2017-11-17T11:55:29.986Z,101206.59
2017-11-17T11:58:31.321Z,101205.74
2017-11-17T12:01:32.965Z,101210.91
2017-11-17T12:04:35.044Z,101201.17
2017-11-17T12:07:37.226Z,101204.27
2017-11-17T12:10:38.626Z,101196.69
2017-11-17T12:13:40.106Z,101200.61
2017-11-17T12:16:42.206Z,101201.84
2017-11-17T12:19:43.658Z,101200.52
2017-11-17T12:22:45.030Z,101206.09
2017-11-17T12:25:46.765Z,101207.55
2017-11-17T12:28:48.175Z,101208.75
2017-11-17T12:31:49.533Z,101210.95
2017-11-17T12:34:50.947Z,101204.39
2017-11-17T12:37:52.421Z,101208.03
2017-11-17T12:40:53.785Z,101202.34
2017-11-17T12:43:55.218Z,101192.63
2017-11-17T12:46:56.648Z,101193.17
2017-11-17T12:49:58.066Z,101193.01
2017-11-17T12:53:00.128Z,101184.66
2017-11-17T12:56:02.376Z,101190.91
2017-11-17T12:59:03.745Z,101188.08
2017-11-17T13:02:05.866Z,101171.39
2017-11-17T13:05:10.756Z,101176.37
2017-11-17T13:08:12.713Z,101175.92
2017-11-17T13:11:14.857Z,101177.38
2017-11-17T13:14:17.222Z,101178.70
2017-11-17T13:17:18.587Z,101170.80
2017-11-17T13:20:19.981Z,101177.02
2017-11-17T13:23:21.531Z,101169.61
2017-11-17T13:26:22.868Z,101164.84
2017-11-17T13:29:24.977Z,101177.24
2017-11-17T13:32:26.349Z,101179.09
2017-11-17T13:35:27.961Z,101160.70
2017-11-17T13:38:29.567Z,101177.44
2017-11-17T13:41:32.278Z,101168.64
2017-11-17T13:44:34.394Z,101161.55
2017-11-17T13:47:35.785Z,101162.75
2017-11-17T13:50:37.197Z,101168.61
2017-11-17T13:53:38.640Z,101173.91
2017-11-17T13:56:40.103Z,101165.55
2017-11-17T13:59:41.514Z,101160.33
2017-11-17T14:02:43.622Z,101162.09
2017-11-17T14:05:45.050Z,101159.88
2017-11-17T14:08:46.399Z,101158.15
2017-11-17T14:11:48.682Z,101166.09
2017-11-17T14:14:50.085Z,101162.19
2017-11-17T14:17:51.490Z,101164.11
2017-11-17T14:20:52.885Z,101157.02
2017-11-17T14:23:54.203Z,101162.21
2017-11-17T14:26:55.578Z,101156.92
2017-11-17T14:29:56.919Z,101167.50
2017-11-17T14:32:58.377Z,101155.59
2017-11-17T14:35:59.726Z,101153.00
2017-11-17T14:39:01.135Z,101140.62
2017-11-17T14:42:02.633Z,101150.45
2017-11-17T14:45:03.982Z,101153.93
2017-11-17T14:48:05.341Z,101152.66
2017-11-17T14:51:06.744Z,101150.47
2017-11-17T14:54:08.137Z,101149.59
2017-11-17T14:57:09.538Z,101153.59
2017-11-17T15:00:11.068Z,101154.06
2017-11-17T15:03:12.462Z,101153.15
2017-11-17T15:06:13.909Z,101167.72
2017-11-17T15:09:15.343Z,101166.42
2017-11-17T15:12:17.502Z,101156.73
2017-11-17T15:15:20.767Z,101164.20
2017-11-17T15:18:22.164Z,101159.81
2017-11-17T15:21:24.292Z,101158.95
2017-11-17T15:24:26.798Z,101157.62
2017-11-17T15:27:28.413Z,101159.41
2017-11-17T15:30:29.870Z,101159.41
2017-11-17T15:33:32.698Z,101159.36
2017-11-17T15:36:35.166Z,101149.70
2017-11-17T15:39:37.408Z,101152.31
2017-11-17T15:42:39.053Z,101154.98
2017-11-17T15:45:40.466Z,101155.42
2017-11-17T15:48:41.914Z,101156.75
2017-11-17T15:51:44.433Z,101151.45
2017-11-17T15:54:47.003Z,101153.22
2017-11-17T15:57:48.736Z,101157.17
2017-11-17T16:00:50.853Z,101148.79
2017-11-17T16:03:52.405Z,101142.63
2017-11-17T16:06:53.771Z,101144.83
2017-11-17T16:09:55.145Z,101139.58
2017-11-17T16:12:56.556Z,101140.45
2017-11-17T16:15:57.959Z,101134.30
2017-11-17T16:18:59.406Z,101132.09
2017-11-17T16:22:00.908Z,101138.70
2017-11-17T16:25:02.306Z,101134.75
2017-11-17T16:28:03.756Z,101133.85
2017-11-17T16:31:05.500Z,101126.38
2017-11-17T16:34:07.705Z,101123.28
2017-11-17T16:37:09.219Z,101128.14
2017-11-17T16:40:10.706Z,101123.30
2017-11-17T16:43:12.172Z,101123.28
2017-11-17T16:46:14.321Z,101122.39
2017-11-17T16:49:15.860Z,101115.34
2017-11-17T16:52:17.353Z,101119.30
2017-11-17T16:55:19.510Z,101113.13
2017-11-17T16:58:20.903Z,101114.45
2017-11-17T17:01:22.263Z,101115.33
2017-11-17T17:04:23.816Z,101109.99
2017-11-17T17:07:25.414Z,101112.66
2017-11-17T17:10:26.733Z,101111.80
2017-11-17T17:13:28.118Z,101123.67
2017-11-17T17:16:29.476Z,101098.12
2017-11-17T17:19:30.859Z,101105.11
2017-11-17T17:22:32.254Z,101099.79
2017-11-17T17:25:33.908Z,101100.23
2017-11-17T17:28:35.541Z,101106.38
2017-11-17T17:31:37.166Z,101104.54
2017-11-17T17:34:39.228Z,101112.88
2017-11-17T17:37:40.653Z,101116.25
2017-11-17T17:40:41.960Z,101117.97
2017-11-17T17:43:43.353Z,101121.62
2017-11-17T17:46:44.627Z,101103.52
2017-11-17T17:49:46.077Z,101115.77
2017-11-17T17:52:47.425Z,101110.05
2017-11-17T17:55:48.904Z,101113.23
2017-11-17T17:58:51.140Z,101111.73
2017-11-17T18:01:52.543Z,101117.11
2017-11-17T18:04:53.907Z,101126.23
2017-11-17T18:07:55.449Z,101132.34
2017-11-17T18:10:58.262Z,101127.11
2017-11-17T18:14:08.856Z,101131.62
2017-11-17T18:17:10.135Z,101127.61
2017-11-17T18:20:12.487Z,101131.11
2017-11-17T18:23:14.000Z,101134.30
2017-11-17T18:26:15.406Z,101135.69
2017-11-17T18:29:17.504Z,101134.86
2017-11-17T18:32:19.620Z,101141.44
2017-11-17T18:35:21.491Z,101136.17
2017-11-17T18:38:24.194Z,101132.69
2017-11-17T18:41:26.432Z,101133.09
2017-11-17T18:44:29.007Z,101136.69
2017-11-17T18:47:30.361Z,101127.41
2017-11-17T18:50:33.136Z,101136.68
2017-11-17T18:53:35.497Z,101125.76
2017-11-17T18:56:37.210Z,101135.42
2017-11-17T18:59:38.872Z,101138.95
2017-11-17T19:02:41.602Z,101145.59
2017-11-17T19:05:45.224Z,101136.77
2017-11-17T19:08:46.693Z,101132.01
2017-11-17T19:11:49.615Z,101141.66
2017-11-17T19:14:51.864Z,101131.59
2017-11-17T19:17:53.265Z,101111.36
2017-11-17T19:20:54.565Z,101092.42
2017-11-17T19:23:59.069Z,101093.30
2017-11-17T19:27:06.066Z,101088.92
2017-11-17T19:30:08.531Z,101098.17
2017-11-17T19:33:11.019Z,101084.53
2017-11-17T19:36:12.454Z,101077.55
2017-11-17T19:42:49.223Z,101076.98
2017-11-17T19:53:22.098Z,101076.56
2017-11-17T19:56:25.010Z,101066.02
2017-11-17T19:59:27.615Z,101073.39
2017-11-17T20:02:30.956Z,101072.16
2017-11-17T20:05:34.640Z,101076.02
2017-11-17T20:08:36.508Z,101069.38
2017-11-17T20:11:38.314Z,101060.97
2017-11-17T20:14:40.105Z,101060.50
2017-11-17T20:17:41.746Z,101044.79
2017-11-17T20:20:46.671Z,101037.30
2017-11-17T20:23:48.128Z,101033.34
2017-11-17T20:26:51.451Z,101022.75
2017-11-17T20:29:56.153Z,101037.72
2017-11-17T20:32:57.543Z,101043.34
2017-11-17T20:35:58.945Z,101054.80
2017-11-17T20:39:00.646Z,101055.73
2017-11-17T20:42:02.505Z,101073.25
2017-11-17T20:45:03.916Z,101076.05
2017-11-17T20:48:05.725Z,101071.86
2017-11-17T20:51:09.056Z,101076.22
2017-11-17T20:54:11.430Z,101067.04
2017-11-17T20:57:14.550Z,101071.80
2017-11-17T21:00:16.569Z,101070.92
2017-11-17T21:03:17.925Z,101068.32
2017-11-17T21:06:19.645Z,101058.36
2017-11-17T21:09:21.071Z,101062.09
2017-11-17T21:12:22.621Z,101053.84
2017-11-17T21:15:25.071Z,101057.84
2017-11-17T21:18:26.581Z,101053.03
2017-11-17T21:21:28.254Z,101043.77
2017-11-17T21:24:29.632Z,101034.99
2017-11-17T21:27:31.833Z,101040.66
2017-11-17T21:30:33.316Z,101035.19
2017-11-17T21:33:34.734Z,101029.58
2017-11-17T21:36:36.295Z,101023.60
2017-11-17T21:42:39.180Z,101025.42
2017-11-17T21:45:40.676Z,101022.91
2017-11-17T21:48:42.184Z,101015.27
2017-11-17T21:51:43.555Z,101021.14
2017-11-17T21:54:44.991Z,101016.45
2017-11-17T21:57:46.548Z,101017.38
2017-11-17T22:00:48.705Z,101019.59
2017-11-17T22:03:50.945Z,101009.50
2017-11-17T22:06:52.350Z,101020.45
2017-11-17T22:09:53.844Z,101014.78
2017-11-17T22:12:55.296Z,101007.33
2017-11-17T22:15:56.692Z,101006.84
2017-11-17T22:18:58.821Z,101008.58
2017-11-17T22:22:00.273Z,101007.31
2017-11-17T22:25:02.412Z,101000.72
2017-11-17T22:28:03.890Z,101006.42
2017-11-17T22:31:05.276Z,101014.32
2017-11-17T22:34:07.450Z,101011.70
2017-11-17T22:37:09.680Z,100998.08
2017-11-17T22:40:11.130Z,101005.97
2017-11-17T22:43:12.585Z,101001.16
2017-11-17T22:46:14.961Z,100995.31
2017-11-17T22:49:16.445Z,101016.72
2017-11-17T22:52:17.904Z,101013.44
2017-11-17T22:55:20.129Z,101020.71
2017-11-17T22:58:21.906Z,101019.16
2017-11-17T23:01:23.352Z,101007.76
2017-11-17T23:04:24.806Z,101009.55
2017-11-17T23:07:26.180Z,101012.86
2017-11-17T23:10:27.625Z,101012.56
2017-11-17T23:13:29.032Z,100995.04
2017-11-17T23:16:30.440Z,100982.34
2017-11-17T23:19:32.596Z,100983.71
2017-11-17T23:22:34.063Z,100981.47
2017-11-17T23:25:35.479Z,100983.61
2017-11-17T23:28:36.909Z,100982.33
2017-11-17T23:31:38.373Z,100967.38
2017-11-17T23:34:39.764Z,100975.89
2017-11-17T23:37:41.235Z,100976.16
2017-11-17T23:40:43.412Z,100963.92
2017-11-17T23:43:45.617Z,100956.93
2017-11-17T23:46:47.125Z,100962.06
2017-11-17T23:49:48.557Z,100969.03
2017-11-17T23:52:50.012Z,100964.95
2017-11-17T23:55:51.450Z,100958.16
2017-11-17T23:58:53.012Z,100962.14
